sensor_id;sensor_type;location;lat;lon;timestamp;temperature;humidity
774;DHT22;370;48.810;9.150;2023-02-01T00:00:12;4.50;23.50
774;DHT22;370;48.810;9.150;2023-02-01T00:02:38;4.50;23.80
774;DHT22;370;48.810;9.150;2023-02-01T00:05:07;4.60;23.30
774;DHT22;370;48.810;9.150;2023-02-01T00:07:35;4.70;23.00
774;DHT22;370;48.810;9.150;2023-02-01T00:10:04;4.60;22.70
774;DHT22;370;48.810;9.150;2023-02-01T00:12:31;4.70;22.30
774;DHT22;370;48.810;9.150;2023-02-01T00:14:58;4.70;21.80
774;DHT22;370;48.810;9.150;2023-02-01T00:17:25;4.70;21.80
774;DHT22;370;48.810;9.150;2023-02-01T00:19:52;4.60;21.90
774;DHT22;370;48.810;9.150;2023-02-01T00:22:18;4.60;22.00
774;DHT22;370;48.810;9.150;2023-02-01T00:24:46;4.60;22.60
774;DHT22;370;48.810;9.150;2023-02-01T00:27:13;4.70;22.40
774;DHT22;370;48.810;9.150;2023-02-01T00:29:43;4.70;22.00
774;DHT22;370;48.810;9.150;2023-02-01T00:32:11;4.70;21.90
774;DHT22;370;48.810;9.150;2023-02-01T00:34:38;4.70;21.00
774;DHT22;370;48.810;9.150;2023-02-01T00:37:04;4.70;20.70
774;DHT22;370;48.810;9.150;2023-02-01T00:39:31;4.80;20.60
774;DHT22;370;48.810;9.150;2023-02-01T00:42:00;4.70;20.00
774;DHT22;370;48.810;9.150;2023-02-01T00:44:27;4.80;20.00
774;DHT22;370;48.810;9.150;2023-02-01T00:46:58;4.80;19.70
774;DHT22;370;48.810;9.150;2023-02-01T00:49:25;4.90;19.70
774;DHT22;370;48.810;9.150;2023-02-01T00:51:52;4.90;19.80
774;DHT22;370;48.810;9.150;2023-02-01T00:54:18;4.80;19.70
774;DHT22;370;48.810;9.150;2023-02-01T00:56:45;4.80;19.70
774;DHT22;370;48.810;9.150;2023-02-01T00:59:13;4.90;19.70
774;DHT22;370;48.810;9.150;2023-02-01T01:01:40;4.90;18.60
774;DHT22;370;48.810;9.150;2023-02-01T01:04:07;4.90;18.60
774;DHT22;370;48.810;9.150;2023-02-01T01:06:34;5.00;18.50
774;DHT22;370;48.810;9.150;2023-02-01T01:09:03;5.00;18.30
774;DHT22;370;48.810;9.150;2023-02-01T01:11:32;5.00;17.90
774;DHT22;370;48.810;9.150;2023-02-01T01:13:59;5.00;17.70
774;DHT22;370;48.810;9.150;2023-02-01T01:16:29;5.00;17.80
774;DHT22;370;48.810;9.150;2023-02-01T01:18:56;5.00;17.50
774;DHT22;370;48.810;9.150;2023-02-01T01:21:24;4.90;18.10
774;DHT22;370;48.810;9.150;2023-02-01T01:23:51;5.00;18.10
774;DHT22;370;48.810;9.150;2023-02-01T01:26:19;4.90;18.20
774;DHT22;370;48.810;9.150;2023-02-01T01:28:46;4.90;18.00
774;DHT22;370;48.810;9.150;2023-02-01T01:31:15;5.00;18.00
774;DHT22;370;48.810;9.150;2023-02-01T01:33:43;4.90;17.90
774;DHT22;370;48.810;9.150;2023-02-01T01:36:12;5.00;17.50
774;DHT22;370;48.810;9.150;2023-02-01T01:38:39;5.00;17.60
774;DHT22;370;48.810;9.150;2023-02-01T01:41:06;5.00;17.10
774;DHT22;370;48.810;9.150;2023-02-01T01:43:51;5.00;17.00
774;DHT22;370;48.810;9.150;2023-02-01T01:46:19;5.00;16.90
774;DHT22;370;48.810;9.150;2023-02-01T01:48:51;5.10;16.80
774;DHT22;370;48.810;9.150;2023-02-01T01:51:21;5.00;16.60
774;DHT22;370;48.810;9.150;2023-02-01T01:53:56;5.00;17.40
774;DHT22;370;48.810;9.150;2023-02-01T01:56:25;5.10;17.20
774;DHT22;370;48.810;9.150;2023-02-01T01:58:54;5.00;17.30
774;DHT22;370;48.810;9.150;2023-02-01T02:01:21;5.10;16.90
774;DHT22;370;48.810;9.150;2023-02-01T02:03:50;5.10;16.30
774;DHT22;370;48.810;9.150;2023-02-01T02:06:27;5.10;16.90
774;DHT22;370;48.810;9.150;2023-02-01T02:08:56;5.10;16.20
774;DHT22;370;48.810;9.150;2023-02-01T02:11:23;5.10;16.20
774;DHT22;370;48.810;9.150;2023-02-01T02:13:52;5.10;15.80
774;DHT22;370;48.810;9.150;2023-02-01T02:16:47;5.00;16.00
774;DHT22;370;48.810;9.150;2023-02-01T02:19:49;5.00;16.00
774;DHT22;370;48.810;9.150;2023-02-01T02:22:57;5.00;16.20
774;DHT22;370;48.810;9.150;2023-02-01T02:25:55;5.00;16.80
774;DHT22;370;48.810;9.150;2023-02-01T02:28:50;5.00;16.50
774;DHT22;370;48.810;9.150;2023-02-01T02:31:35;5.00;16.20
774;DHT22;370;48.810;9.150;2023-02-01T02:34:14;5.00;16.60
774;DHT22;370;48.810;9.150;2023-02-01T02:36:50;5.00;16.50
774;DHT22;370;48.810;9.150;2023-02-01T02:39:23;5.00;16.80
774;DHT22;370;48.810;9.150;2023-02-01T02:41:59;5.00;16.70
774;DHT22;370;48.810;9.150;2023-02-01T02:44:48;5.00;16.90
774;DHT22;370;48.810;9.150;2023-02-01T02:47:41;5.10;16.50
774;DHT22;370;48.810;9.150;2023-02-01T02:50:18;5.10;16.70
774;DHT22;370;48.810;9.150;2023-02-01T02:53:11;5.10;17.10
774;DHT22;370;48.810;9.150;2023-02-01T02:55:57;5.00;17.10
774;DHT22;370;48.810;9.150;2023-02-01T02:58:43;4.90;17.70
774;DHT22;370;48.810;9.150;2023-02-01T03:01:28;4.90;18.50
774;DHT22;370;48.810;9.150;2023-02-01T03:04:12;4.90;19.00
774;DHT22;370;48.810;9.150;2023-02-01T03:06:44;4.90;18.80
774;DHT22;370;48.810;9.150;2023-02-01T03:09:18;4.90;18.70
774;DHT22;370;48.810;9.150;2023-02-01T03:11:49;4.80;19.30
774;DHT22;370;48.810;9.150;2023-02-01T03:14:36;4.90;19.70
774;DHT22;370;48.810;9.150;2023-02-01T03:17:07;4.90;19.70
774;DHT22;370;48.810;9.150;2023-02-01T03:19:38;4.90;19.80
774;DHT22;370;48.810;9.150;2023-02-01T03:22:12;4.80;19.70
774;DHT22;370;48.810;9.150;2023-02-01T03:24:43;4.80;19.70
774;DHT22;370;48.810;9.150;2023-02-01T03:27:14;4.80;20.00
774;DHT22;370;48.810;9.150;2023-02-01T03:29:47;4.80;20.60
774;DHT22;370;48.810;9.150;2023-02-01T03:32:15;4.80;20.80
774;DHT22;370;48.810;9.150;2023-02-01T03:34:43;4.80;20.50
774;DHT22;370;48.810;9.150;2023-02-01T03:37:15;4.80;20.80
774;DHT22;370;48.810;9.150;2023-02-01T03:39:47;4.80;21.10
774;DHT22;370;48.810;9.150;2023-02-01T03:42:18;4.80;21.20
774;DHT22;370;48.810;9.150;2023-02-01T03:44:49;4.70;22.00
774;DHT22;370;48.810;9.150;2023-02-01T03:47:20;4.80;21.80
774;DHT22;370;48.810;9.150;2023-02-01T03:49:50;4.80;21.80
774;DHT22;370;48.810;9.150;2023-02-01T03:52:22;4.80;21.70
774;DHT22;370;48.810;9.150;2023-02-01T03:54:52;4.90;21.40
774;DHT22;370;48.810;9.150;2023-02-01T03:57:23;4.90;21.20
774;DHT22;370;48.810;9.150;2023-02-01T03:59:53;4.90;20.30
774;DHT22;370;48.810;9.150;2023-02-01T04:02:19;5.00;20.60
774;DHT22;370;48.810;9.150;2023-02-01T04:04:46;5.00;21.50
774;DHT22;370;48.810;9.150;2023-02-01T04:07:13;5.00;22.40
774;DHT22;370;48.810;9.150;2023-02-01T04:09:41;4.90;22.20
774;DHT22;370;48.810;9.150;2023-02-01T04:12:08;4.90;22.20
774;DHT22;370;48.810;9.150;2023-02-01T04:14:34;4.90;22.40
774;DHT22;370;48.810;9.150;2023-02-01T04:17:01;5.00;21.90
774;DHT22;370;48.810;9.150;2023-02-01T04:19:28;5.00;21.80
774;DHT22;370;48.810;9.150;2023-02-01T04:21:55;5.00;20.70
774;DHT22;370;48.810;9.150;2023-02-01T04:24:22;5.10;19.90
774;DHT22;370;48.810;9.150;2023-02-01T04:26:50;5.20;20.00
774;DHT22;370;48.810;9.150;2023-02-01T04:29:16;5.30;20.00
774;DHT22;370;48.810;9.150;2023-02-01T04:31:43;5.30;20.00
774;DHT22;370;48.810;9.150;2023-02-01T04:34:11;5.30;20.00
774;DHT22;370;48.810;9.150;2023-02-01T04:36:38;5.30;20.00
774;DHT22;370;48.810;9.150;2023-02-01T04:39:05;5.30;20.00
774;DHT22;370;48.810;9.150;2023-02-01T04:41:31;5.30;20.00
774;DHT22;370;48.810;9.150;2023-02-01T04:44:00;5.20;19.90
774;DHT22;370;48.810;9.150;2023-02-01T04:46:26;5.30;19.30
774;DHT22;370;48.810;9.150;2023-02-01T04:48:53;5.30;18.00
774;DHT22;370;48.810;9.150;2023-02-01T04:51:20;5.30;17.90
774;DHT22;370;48.810;9.150;2023-02-01T04:53:47;5.40;16.40
774;DHT22;370;48.810;9.150;2023-02-01T04:56:14;5.50;16.30
774;DHT22;370;48.810;9.150;2023-02-01T04:58:41;5.50;15.40
774;DHT22;370;48.810;9.150;2023-02-01T05:01:09;5.60;15.00
774;DHT22;370;48.810;9.150;2023-02-01T05:03:35;5.60;14.80
774;DHT22;370;48.810;9.150;2023-02-01T05:06:02;5.60;15.30
774;DHT22;370;48.810;9.150;2023-02-01T05:08:30;5.60;15.40
774;DHT22;370;48.810;9.150;2023-02-01T05:10:57;5.50;15.30
774;DHT22;370;48.810;9.150;2023-02-01T05:13:27;5.60;15.20
774;DHT22;370;48.810;9.150;2023-02-01T05:16:15;5.70;14.20
774;DHT22;370;48.810;9.150;2023-02-01T05:18:42;5.70;13.50
774;DHT22;370;48.810;9.150;2023-02-01T05:21:09;5.80;13.20
774;DHT22;370;48.810;9.150;2023-02-01T05:23:36;5.80;12.60
774;DHT22;370;48.810;9.150;2023-02-01T05:26:22;5.90;11.90
774;DHT22;370;48.810;9.150;2023-02-01T05:28:49;5.90;11.90
774;DHT22;370;48.810;9.150;2023-02-01T05:31:18;5.90;11.90
774;DHT22;370;48.810;9.150;2023-02-01T05:33:44;5.90;11.90
774;DHT22;370;48.810;9.150;2023-02-01T05:36:12;5.80;11.80
774;DHT22;370;48.810;9.150;2023-02-01T05:38:40;5.90;11.90
774;DHT22;370;48.810;9.150;2023-02-01T05:41:07;5.90;11.90
774;DHT22;370;48.810;9.150;2023-02-01T05:43:34;5.90;11.90
774;DHT22;370;48.810;9.150;2023-02-01T05:46:01;6.00;12.00
774;DHT22;370;48.810;9.150;2023-02-01T05:48:29;5.90;11.90
774;DHT22;370;48.810;9.150;2023-02-01T05:50:56;5.90;11.90
774;DHT22;370;48.810;9.150;2023-02-01T05:53:23;5.90;11.90
774;DHT22;370;48.810;9.150;2023-02-01T05:55:50;5.90;12.40
774;DHT22;370;48.810;9.150;2023-02-01T05:58:17;5.90;13.80
774;DHT22;370;48.810;9.150;2023-02-01T06:00:43;5.80;14.80
774;DHT22;370;48.810;9.150;2023-02-01T06:03:11;5.70;16.60
774;DHT22;370;48.810;9.150;2023-02-01T06:05:39;5.60;17.80
774;DHT22;370;48.810;9.150;2023-02-01T06:08:06;5.50;18.90
774;DHT22;370;48.810;9.150;2023-02-01T06:10:32;5.40;20.10
774;DHT22;370;48.810;9.150;2023-02-01T06:12:59;5.30;20.00
774;DHT22;370;48.810;9.150;2023-02-01T06:15:26;5.30;20.00
774;DHT22;370;48.810;9.150;2023-02-01T06:17:53;5.30;20.50
774;DHT22;370;48.810;9.150;2023-02-01T06:20:20;5.20;21.30
774;DHT22;370;48.810;9.150;2023-02-01T06:22:49;5.20;21.70
774;DHT22;370;48.810;9.150;2023-02-01T06:25:16;5.20;21.70
774;DHT22;370;48.810;9.150;2023-02-01T06:27:43;5.30;20.90
774;DHT22;370;48.810;9.150;2023-02-01T06:30:11;5.30;20.00
774;DHT22;370;48.810;9.150;2023-02-01T06:32:39;5.40;20.10
774;DHT22;370;48.810;9.150;2023-02-01T06:35:07;5.50;20.10
774;DHT22;370;48.810;9.150;2023-02-01T06:37:36;5.60;18.30
774;DHT22;370;48.810;9.150;2023-02-01T06:40:06;5.70;17.10
774;DHT22;370;48.810;9.150;2023-02-01T06:42:33;5.80;16.80
774;DHT22;370;48.810;9.150;2023-02-01T06:44:59;5.80;15.90
774;DHT22;370;48.810;9.150;2023-02-01T06:47:26;5.90;15.10
774;DHT22;370;48.810;9.150;2023-02-01T06:49:53;5.90;14.60
774;DHT22;370;48.810;9.150;2023-02-01T06:52:20;6.00;13.70
774;DHT22;370;48.810;9.150;2023-02-01T06:54:46;6.10;12.10
774;DHT22;370;48.810;9.150;2023-02-01T06:57:15;6.00;12.00
774;DHT22;370;48.810;9.150;2023-02-01T06:59:41;6.00;12.00
774;DHT22;370;48.810;9.150;2023-02-01T07:02:10;6.10;11.60
774;DHT22;370;48.810;9.150;2023-02-01T07:04:37;6.20;11.00
774;DHT22;370;48.810;9.150;2023-02-01T07:07:03;6.20;11.00
774;DHT22;370;48.810;9.150;2023-02-01T07:09:30;6.20;9.70
774;DHT22;370;48.810;9.150;2023-02-01T07:11:57;6.30;9.40
774;DHT22;370;48.810;9.150;2023-02-01T07:14:25;6.40;8.80
774;DHT22;370;48.810;9.150;2023-02-01T07:16:52;6.50;8.10
774;DHT22;370;48.810;9.150;2023-02-01T07:19:18;6.50;7.70
774;DHT22;370;48.810;9.150;2023-02-01T07:21:45;6.50;7.50
774;DHT22;370;48.810;9.150;2023-02-01T07:24:12;6.60;7.00
774;DHT22;370;48.810;9.150;2023-02-01T07:26:40;6.60;6.90
774;DHT22;370;48.810;9.150;2023-02-01T07:29:06;6.60;6.20
774;DHT22;370;48.810;9.150;2023-02-01T07:31:35;6.60;6.50
774;DHT22;370;48.810;9.150;2023-02-01T07:34:01;6.70;6.00
774;DHT22;370;48.810;9.150;2023-02-01T07:36:28;6.70;5.50
774;DHT22;370;48.810;9.150;2023-02-01T07:38:55;6.70;5.70
774;DHT22;370;48.810;9.150;2023-02-01T07:41:22;6.70;5.50
774;DHT22;370;48.810;9.150;2023-02-01T07:43:48;6.80;5.30
774;DHT22;370;48.810;9.150;2023-02-01T07:46:18;6.80;4.30
774;DHT22;370;48.810;9.150;2023-02-01T07:48:46;6.90;3.80
774;DHT22;370;48.810;9.150;2023-02-01T07:51:15;6.90;3.80
774;DHT22;370;48.810;9.150;2023-02-01T07:53:42;7.00;3.20
774;DHT22;370;48.810;9.150;2023-02-01T07:56:11;7.00;2.50
774;DHT22;370;48.810;9.150;2023-02-01T07:58:39;7.10;2.50
774;DHT22;370;48.810;9.150;2023-02-01T08:01:13;7.00;1.90
774;DHT22;370;48.810;9.150;2023-02-01T08:03:52;6.90;2.10
774;DHT22;370;48.810;9.150;2023-02-01T08:06:20;7.00;2.30
774;DHT22;370;48.810;9.150;2023-02-01T08:08:48;6.90;2.10
774;DHT22;370;48.810;9.150;2023-02-01T08:11:15;7.00;2.00
774;DHT22;370;48.810;9.150;2023-02-01T08:13:43;6.90;1.70
774;DHT22;370;48.810;9.150;2023-02-01T08:16:11;6.90;2.50
774;DHT22;370;48.810;9.150;2023-02-01T08:18:39;6.90;2.30
774;DHT22;370;48.810;9.150;2023-02-01T08:21:09;6.90;2.20
774;DHT22;370;48.810;9.150;2023-02-01T08:23:37;6.90;2.10
774;DHT22;370;48.810;9.150;2023-02-01T08:26:06;7.10;1.40
774;DHT22;370;48.810;9.150;2023-02-01T08:28:33;7.20;1.00
774;DHT22;370;48.810;9.150;2023-02-01T08:31:04;7.30;1.00
774;DHT22;370;48.810;9.150;2023-02-01T08:33:31;7.30;1.00
774;DHT22;370;48.810;9.150;2023-02-01T08:36:00;7.40;1.00
774;DHT22;370;48.810;9.150;2023-02-01T08:38:28;7.50;1.00
774;DHT22;370;48.810;9.150;2023-02-01T08:40:55;7.70;1.00
774;DHT22;370;48.810;9.150;2023-02-01T08:43:22;7.80;1.00
774;DHT22;370;48.810;9.150;2023-02-01T08:45:50;7.80;1.00
774;DHT22;370;48.810;9.150;2023-02-01T08:48:20;8.00;1.00
774;DHT22;370;48.810;9.150;2023-02-01T08:50:47;8.20;1.00
774;DHT22;370;48.810;9.150;2023-02-01T08:53:13;8.30;1.00
774;DHT22;370;48.810;9.150;2023-02-01T08:55:42;8.30;1.00
774;DHT22;370;48.810;9.150;2023-02-01T08:58:09;8.20;1.00
774;DHT22;370;48.810;9.150;2023-02-01T09:00:35;8.20;1.00
774;DHT22;370;48.810;9.150;2023-02-01T09:03:02;8.00;1.00
774;DHT22;370;48.810;9.150;2023-02-01T09:05:29;7.90;1.00
774;DHT22;370;48.810;9.150;2023-02-01T09:07:56;7.90;1.00
774;DHT22;370;48.810;9.150;2023-02-01T09:10:23;7.70;1.00
774;DHT22;370;48.810;9.150;2023-02-01T09:12:51;7.70;1.00
774;DHT22;370;48.810;9.150;2023-02-01T09:15:18;7.60;1.00
774;DHT22;370;48.810;9.150;2023-02-01T09:17:44;7.60;1.00
774;DHT22;370;48.810;9.150;2023-02-01T09:20:12;7.50;1.00
774;DHT22;370;48.810;9.150;2023-02-01T09:22:39;7.40;1.00
774;DHT22;370;48.810;9.150;2023-02-01T09:25:07;7.40;1.00
774;DHT22;370;48.810;9.150;2023-02-01T09:27:34;7.40;1.00
774;DHT22;370;48.810;9.150;2023-02-01T09:30:03;7.40;1.00
774;DHT22;370;48.810;9.150;2023-02-01T09:32:30;7.50;1.00
774;DHT22;370;48.810;9.150;2023-02-01T09:34:56;7.70;1.00
774;DHT22;370;48.810;9.150;2023-02-01T09:37:23;7.80;1.00
774;DHT22;370;48.810;9.150;2023-02-01T09:39:50;7.80;1.00
774;DHT22;370;48.810;9.150;2023-02-01T09:42:25;7.80;1.00
774;DHT22;370;48.810;9.150;2023-02-01T09:45:10;7.80;1.00
774;DHT22;370;48.810;9.150;2023-02-01T09:47:45;7.90;1.00
774;DHT22;370;48.810;9.150;2023-02-01T09:50:15;8.00;1.00
774;DHT22;370;48.810;9.150;2023-02-01T09:52:50;8.00;1.00
774;DHT22;370;48.810;9.150;2023-02-01T09:55:23;8.10;1.00
774;DHT22;370;48.810;9.150;2023-02-01T09:57:54;8.10;1.00
774;DHT22;370;48.810;9.150;2023-02-01T10:00:27;8.10;1.00
774;DHT22;370;48.810;9.150;2023-02-01T10:02:55;8.10;1.00
774;DHT22;370;48.810;9.150;2023-02-01T10:05:43;8.10;1.00
774;DHT22;370;48.810;9.150;2023-02-01T10:08:22;8.00;1.00
774;DHT22;370;48.810;9.150;2023-02-01T10:10:52;7.90;1.00
774;DHT22;370;48.810;9.150;2023-02-01T10:13:35;7.90;1.00
774;DHT22;370;48.810;9.150;2023-02-01T10:16:17;7.90;1.00
774;DHT22;370;48.810;9.150;2023-02-01T10:19:01;7.90;1.00
774;DHT22;370;48.810;9.150;2023-02-01T10:21:43;8.10;1.00
774;DHT22;370;48.810;9.150;2023-02-01T10:24:20;8.30;1.00
774;DHT22;370;48.810;9.150;2023-02-01T10:26:55;8.40;1.00
774;DHT22;370;48.810;9.150;2023-02-01T10:29:27;8.50;1.00
774;DHT22;370;48.810;9.150;2023-02-01T10:31:58;8.80;1.00
774;DHT22;370;48.810;9.150;2023-02-01T10:34:27;8.90;1.00
774;DHT22;370;48.810;9.150;2023-02-01T10:36:59;9.00;1.00
774;DHT22;370;48.810;9.150;2023-02-01T10:39:26;8.90;1.00
774;DHT22;370;48.810;9.150;2023-02-01T10:41:55;8.70;1.00
774;DHT22;370;48.810;9.150;2023-02-01T10:44:26;8.50;1.00
774;DHT22;370;48.810;9.150;2023-02-01T10:46:53;8.50;1.00
774;DHT22;370;48.810;9.150;2023-02-01T10:49:26;8.50;1.00
774;DHT22;370;48.810;9.150;2023-02-01T10:51:59;8.50;1.00
774;DHT22;370;48.810;9.150;2023-02-01T10:54:35;8.50;1.00
774;DHT22;370;48.810;9.150;2023-02-01T10:57:07;8.50;1.00
774;DHT22;370;48.810;9.150;2023-02-01T10:59:34;8.40;1.00
774;DHT22;370;48.810;9.150;2023-02-01T11:02:05;8.30;1.00
774;DHT22;370;48.810;9.150;2023-02-01T11:04:41;8.30;1.00
774;DHT22;370;48.810;9.150;2023-02-01T11:07:16;8.30;1.00
774;DHT22;370;48.810;9.150;2023-02-01T11:09:49;8.40;1.00
774;DHT22;370;48.810;9.150;2023-02-01T11:12:38;8.40;1.00
774;DHT22;370;48.810;9.150;2023-02-01T11:15:15;8.30;1.00
774;DHT22;370;48.810;9.150;2023-02-01T11:17:46;8.30;1.00
774;DHT22;370;48.810;9.150;2023-02-01T11:20:19;8.20;1.00
774;DHT22;370;48.810;9.150;2023-02-01T11:22:48;8.20;1.00
774;DHT22;370;48.810;9.150;2023-02-01T11:25:19;8.00;1.00
774;DHT22;370;48.810;9.150;2023-02-01T11:27:48;7.90;1.00
774;DHT22;370;48.810;9.150;2023-02-01T11:30:18;7.80;1.00
774;DHT22;370;48.810;9.150;2023-02-01T11:32:47;7.70;1.00
774;DHT22;370;48.810;9.150;2023-02-01T11:35:19;7.80;1.00
774;DHT22;370;48.810;9.150;2023-02-01T11:37:49;7.80;1.00
774;DHT22;370;48.810;9.150;2023-02-01T11:40:26;7.90;1.00
774;DHT22;370;48.810;9.150;2023-02-01T11:42:55;8.00;1.00
774;DHT22;370;48.810;9.150;2023-02-01T11:45:28;7.90;1.00
774;DHT22;370;48.810;9.150;2023-02-01T11:47:56;7.90;1.00
774;DHT22;370;48.810;9.150;2023-02-01T11:50:32;7.90;1.00
774;DHT22;370;48.810;9.150;2023-02-01T11:53:13;7.90;1.00
774;DHT22;370;48.810;9.150;2023-02-01T11:55:53;8.00;1.00
774;DHT22;370;48.810;9.150;2023-02-01T12:01:59;9.20;1.00
774;DHT22;370;48.810;9.150;2023-02-01T12:04:56;9.70;1.00
774;DHT22;370;48.810;9.150;2023-02-01T12:07:38;9.30;1.00
774;DHT22;370;48.810;9.150;2023-02-01T12:10:20;8.90;1.00
774;DHT22;370;48.810;9.150;2023-02-01T12:12:56;8.60;1.00
774;DHT22;370;48.810;9.150;2023-02-01T12:15:41;8.40;1.00
774;DHT22;370;48.810;9.150;2023-02-01T12:18:33;8.30;1.00
774;DHT22;370;48.810;9.150;2023-02-01T12:21:11;8.10;1.00
774;DHT22;370;48.810;9.150;2023-02-01T12:23:57;8.20;1.00
774;DHT22;370;48.810;9.150;2023-02-01T12:29:35;8.20;1.00
774;DHT22;370;48.810;9.150;2023-02-01T12:32:11;8.20;1.00
774;DHT22;370;48.810;9.150;2023-02-01T12:34:54;8.20;1.00
774;DHT22;370;48.810;9.150;2023-02-01T12:37:37;8.10;1.00
774;DHT22;370;48.810;9.150;2023-02-01T12:40:21;7.90;1.00
774;DHT22;370;48.810;9.150;2023-02-01T12:42:57;7.80;1.00
774;DHT22;370;48.810;9.150;2023-02-01T12:45:31;7.70;1.00
774;DHT22;370;48.810;9.150;2023-02-01T12:48:08;7.60;1.00
774;DHT22;370;48.810;9.150;2023-02-01T12:50:43;7.70;1.00
774;DHT22;370;48.810;9.150;2023-02-01T12:53:15;7.60;1.00
774;DHT22;370;48.810;9.150;2023-02-01T12:55:49;7.60;1.00
774;DHT22;370;48.810;9.150;2023-02-01T12:58:21;7.60;1.00
774;DHT22;370;48.810;9.150;2023-02-01T13:00:51;7.60;1.00
774;DHT22;370;48.810;9.150;2023-02-01T13:03:29;7.50;1.00
774;DHT22;370;48.810;9.150;2023-02-01T13:06:02;7.50;1.00
774;DHT22;370;48.810;9.150;2023-02-01T13:08:39;7.40;1.00
774;DHT22;370;48.810;9.150;2023-02-01T13:11:13;7.30;1.00
774;DHT22;370;48.810;9.150;2023-02-01T13:13:48;7.20;1.00
774;DHT22;370;48.810;9.150;2023-02-01T13:16:21;7.30;1.00
774;DHT22;370;48.810;9.150;2023-02-01T13:18:59;7.30;1.00
774;DHT22;370;48.810;9.150;2023-02-01T13:21:31;7.30;1.00
774;DHT22;370;48.810;9.150;2023-02-01T13:23:58;7.40;1.00
774;DHT22;370;48.810;9.150;2023-02-01T13:26:26;7.50;1.00
774;DHT22;370;48.810;9.150;2023-02-01T13:28:56;7.50;1.00
774;DHT22;370;48.810;9.150;2023-02-01T13:31:44;7.40;1.00
774;DHT22;370;48.810;9.150;2023-02-01T13:34:49;7.50;1.00
774;DHT22;370;48.810;9.150;2023-02-01T13:37:30;7.60;1.00
774;DHT22;370;48.810;9.150;2023-02-01T13:40:23;7.70;1.00
774;DHT22;370;48.810;9.150;2023-02-01T13:42:59;7.80;1.00
774;DHT22;370;48.810;9.150;2023-02-01T13:45:29;7.80;1.00
774;DHT22;370;48.810;9.150;2023-02-01T13:47:59;7.80;1.00
774;DHT22;370;48.810;9.150;2023-02-01T13:50:30;7.60;1.00
774;DHT22;370;48.810;9.150;2023-02-01T13:53:01;7.50;1.00
774;DHT22;370;48.810;9.150;2023-02-01T13:55:34;7.40;1.00
774;DHT22;370;48.810;9.150;2023-02-01T13:58:18;7.30;1.00
774;DHT22;370;48.810;9.150;2023-02-01T14:00:45;7.20;1.00
774;DHT22;370;48.810;9.150;2023-02-01T14:03:15;7.10;1.00
774;DHT22;370;48.810;9.150;2023-02-01T14:06:14;7.00;1.00
774;DHT22;370;48.810;9.150;2023-02-01T14:08:44;7.20;1.00
774;DHT22;370;48.810;9.150;2023-02-01T14:11:36;7.30;1.00
774;DHT22;370;48.810;9.150;2023-02-01T14:23:25;7.50;1.00
774;DHT22;370;48.810;9.150;2023-02-01T14:26:09;7.50;1.00
774;DHT22;370;48.810;9.150;2023-02-01T14:28:41;7.50;1.00
774;DHT22;370;48.810;9.150;2023-02-01T14:31:28;7.40;1.00
774;DHT22;370;48.810;9.150;2023-02-01T14:33:58;7.40;1.00
774;DHT22;370;48.810;9.150;2023-02-01T14:36:39;7.40;1.00
774;DHT22;370;48.810;9.150;2023-02-01T14:39:23;7.40;1.00
774;DHT22;370;48.810;9.150;2023-02-01T14:41:54;7.40;1.00
774;DHT22;370;48.810;9.150;2023-02-01T14:44:32;7.30;1.00
774;DHT22;370;48.810;9.150;2023-02-01T14:47:09;7.30;1.00
774;DHT22;370;48.810;9.150;2023-02-01T14:49:39;7.20;1.00
774;DHT22;370;48.810;9.150;2023-02-01T14:52:13;7.20;1.00
774;DHT22;370;48.810;9.150;2023-02-01T14:54:41;7.20;1.00
774;DHT22;370;48.810;9.150;2023-02-01T14:57:15;7.10;1.00
774;DHT22;370;48.810;9.150;2023-02-01T14:59:45;7.10;1.00
774;DHT22;370;48.810;9.150;2023-02-01T15:02:20;7.10;1.00
774;DHT22;370;48.810;9.150;2023-02-01T15:04:53;7.10;1.00
774;DHT22;370;48.810;9.150;2023-02-01T15:07:21;7.10;1.00
774;DHT22;370;48.810;9.150;2023-02-01T15:09:50;7.10;1.00
774;DHT22;370;48.810;9.150;2023-02-01T15:12:22;7.10;1.00
774;DHT22;370;48.810;9.150;2023-02-01T15:15:09;7.10;1.00
774;DHT22;370;48.810;9.150;2023-02-01T15:17:38;7.00;1.00
774;DHT22;370;48.810;9.150;2023-02-01T15:20:13;7.00;1.00
774;DHT22;370;48.810;9.150;2023-02-01T15:22:41;7.10;1.00
774;DHT22;370;48.810;9.150;2023-02-01T15:25:18;7.00;1.00
774;DHT22;370;48.810;9.150;2023-02-01T15:27:45;7.00;1.00
774;DHT22;370;48.810;9.150;2023-02-01T15:30:17;7.00;1.00
774;DHT22;370;48.810;9.150;2023-02-01T15:32:47;7.00;1.00
774;DHT22;370;48.810;9.150;2023-02-01T15:35:34;7.00;1.00
774;DHT22;370;48.810;9.150;2023-02-01T15:38:31;7.00;1.00
774;DHT22;370;48.810;9.150;2023-02-01T15:41:01;6.90;1.00
774;DHT22;370;48.810;9.150;2023-02-01T15:43:29;7.00;1.00
774;DHT22;370;48.810;9.150;2023-02-01T15:45:58;7.00;1.00
774;DHT22;370;48.810;9.150;2023-02-01T15:48:32;7.00;1.00
774;DHT22;370;48.810;9.150;2023-02-01T15:51:01;7.00;1.00
774;DHT22;370;48.810;9.150;2023-02-01T15:53:29;7.00;1.00
774;DHT22;370;48.810;9.150;2023-02-01T15:55:59;7.00;1.00
774;DHT22;370;48.810;9.150;2023-02-01T15:58:27;7.00;1.00
774;DHT22;370;48.810;9.150;2023-02-01T16:00:56;7.00;1.00
774;DHT22;370;48.810;9.150;2023-02-01T16:03:35;7.10;1.00
774;DHT22;370;48.810;9.150;2023-02-01T16:06:04;7.00;1.00
774;DHT22;370;48.810;9.150;2023-02-01T16:08:32;7.00;1.00
774;DHT22;370;48.810;9.150;2023-02-01T16:11:10;7.00;1.00
774;DHT22;370;48.810;9.150;2023-02-01T16:13:40;7.00;1.00
774;DHT22;370;48.810;9.150;2023-02-01T16:16:08;7.00;1.00
774;DHT22;370;48.810;9.150;2023-02-01T16:18:40;7.00;1.00
774;DHT22;370;48.810;9.150;2023-02-01T16:21:07;7.10;1.00
774;DHT22;370;48.810;9.150;2023-02-01T16:23:35;7.00;1.00
774;DHT22;370;48.810;9.150;2023-02-01T16:26:01;7.00;1.00
774;DHT22;370;48.810;9.150;2023-02-01T16:28:28;7.10;1.00
774;DHT22;370;48.810;9.150;2023-02-01T16:30:55;7.00;1.00
774;DHT22;370;48.810;9.150;2023-02-01T16:33:23;7.00;1.00
774;DHT22;370;48.810;9.150;2023-02-01T16:35:52;7.00;1.00
774;DHT22;370;48.810;9.150;2023-02-01T16:38:20;7.00;1.00
774;DHT22;370;48.810;9.150;2023-02-01T16:40:49;7.00;1.00
774;DHT22;370;48.810;9.150;2023-02-01T16:43:18;7.00;1.00
774;DHT22;370;48.810;9.150;2023-02-01T16:45:46;7.10;1.00
774;DHT22;370;48.810;9.150;2023-02-01T16:48:19;7.10;1.00
774;DHT22;370;48.810;9.150;2023-02-01T16:50:49;7.10;1.00
774;DHT22;370;48.810;9.150;2023-02-01T16:53:18;7.10;1.00
774;DHT22;370;48.810;9.150;2023-02-01T16:55:45;7.00;1.00
774;DHT22;370;48.810;9.150;2023-02-01T16:58:15;7.00;1.00
774;DHT22;370;48.810;9.150;2023-02-01T17:00:42;7.00;1.00
774;DHT22;370;48.810;9.150;2023-02-01T17:03:10;6.90;1.00
774;DHT22;370;48.810;9.150;2023-02-01T17:05:38;6.90;1.00
774;DHT22;370;48.810;9.150;2023-02-01T17:08:06;6.90;1.00
774;DHT22;370;48.810;9.150;2023-02-01T17:10:35;6.80;1.00
774;DHT22;370;48.810;9.150;2023-02-01T17:13:02;6.80;1.00
774;DHT22;370;48.810;9.150;2023-02-01T17:15:32;6.80;1.00
774;DHT22;370;48.810;9.150;2023-02-01T17:18:02;6.80;1.00
774;DHT22;370;48.810;9.150;2023-02-01T17:20:30;6.80;1.00
774;DHT22;370;48.810;9.150;2023-02-01T17:22:58;6.80;1.00
774;DHT22;370;48.810;9.150;2023-02-01T17:25:26;6.80;1.00
774;DHT22;370;48.810;9.150;2023-02-01T17:27:55;6.80;1.00
774;DHT22;370;48.810;9.150;2023-02-01T17:30:22;6.90;1.00
774;DHT22;370;48.810;9.150;2023-02-01T17:32:49;6.80;1.00
774;DHT22;370;48.810;9.150;2023-02-01T17:35:18;6.90;1.00
774;DHT22;370;48.810;9.150;2023-02-01T17:37:46;7.00;1.00
774;DHT22;370;48.810;9.150;2023-02-01T17:40:13;7.00;1.00
774;DHT22;370;48.810;9.150;2023-02-01T17:42:40;7.00;1.00
774;DHT22;370;48.810;9.150;2023-02-01T17:48:11;6.90;1.00